History Range:
146.850
Actions Date Temp RH
2019-04-24 15:02:44 84.0000 11.3000
2019-04-24 14:30:04 84.4000 11.4000
2019-04-24 14:00:20 84.6000 11.6000
2019-04-24 13:30:00 85.6000 10.0000
2019-04-24 13:00:56 86.7000 8.7000
2019-04-24 12:31:29 88.2000 8.2000
2019-04-24 12:01:08 88.2000 8.8000
2019-04-24 11:33:16 88.2000 7.7000
2019-04-24 11:00:00 88.3000 7.2000
2019-04-24 10:30:38 88.2000 8.0000
2019-04-24 10:00:08 88.3000 8.1000
2019-04-24 09:30:04 88.5000 7.4000
2019-04-24 09:00:00 88.7000 6.9000
2019-04-24 08:30:02 88.9000 7.4000
2019-04-24 08:00:02 89.2000 6.7000
2019-04-24 07:30:00 89.1000 6.9000
2019-04-24 07:00:46 88.9000 6.9000
2019-04-24 06:30:02 88.9000 7.0000
2019-04-24 06:02:05 88.9000 7.0000
2019-04-24 05:31:37 88.7000 7.4000